createdAt,value
2019-05-22T00:00:37.340Z,9.90
2019-05-22T00:03:33.450Z,9.90
2019-05-22T00:06:21.932Z,9.90
2019-05-22T00:09:05.294Z,9.90
2019-05-22T00:11:56.684Z,10.00
2019-05-22T00:14:47.133Z,10.00
2019-05-22T00:17:32.301Z,9.90
2019-05-22T00:20:21.088Z,10.00
2019-05-22T00:23:04.310Z,10.00
2019-05-22T00:25:53.944Z,9.90
2019-05-22T00:28:44.593Z,9.90
2019-05-22T00:31:29.305Z,10.00
2019-05-22T00:34:17.658Z,10.00
2019-05-22T00:36:59.914Z,10.00
2019-05-22T00:39:48.254Z,10.00
2019-05-22T00:42:32.423Z,10.00
2019-05-22T00:45:22.306Z,10.00
2019-05-22T00:47:58.465Z,10.00
2019-05-22T00:51:00.415Z,10.00
2019-05-22T00:53:56.861Z,10.00
2019-05-22T00:56:52.020Z,10.00
2019-05-22T00:59:42.351Z,10.00
2019-05-22T01:02:35.959Z,10.00
2019-05-22T01:05:26.145Z,10.00
2019-05-22T01:08:15.457Z,9.90
2019-05-22T01:11:06.271Z,9.90
2019-05-22T01:13:51.407Z,9.90
2019-05-22T01:16:40.170Z,9.90
2019-05-22T01:19:22.102Z,9.90
2019-05-22T01:22:13.589Z,9.90
2019-05-22T01:25:06.797Z,9.90
2019-05-22T01:27:51.393Z,9.90
2019-05-22T01:30:50.852Z,9.90
2019-05-22T01:33:35.155Z,9.90
2019-05-22T01:36:31.753Z,9.80
2019-05-22T01:39:23.540Z,9.90
2019-05-22T01:42:15.792Z,9.90
2019-05-22T01:45:06.758Z,9.90
2019-05-22T01:47:54.264Z,9.90
2019-05-22T01:50:58.161Z,9.80
2019-05-22T01:53:53.513Z,9.90
2019-05-22T01:56:42.592Z,9.90
2019-05-22T01:59:23.454Z,9.90
2019-05-22T02:02:14.684Z,9.90
2019-05-22T02:04:57.981Z,9.90
2019-05-22T02:07:48.447Z,9.80
2019-05-22T02:10:40.623Z,9.90
2019-05-22T02:13:25.682Z,9.90
2019-05-22T02:16:15.716Z,9.90
2019-05-22T02:19:03.844Z,9.90
2019-05-22T02:21:52.203Z,9.90
2019-05-22T02:24:33.791Z,9.90
2019-05-22T02:27:22.603Z,9.90
2019-05-22T02:30:05.454Z,9.90
2019-05-22T02:32:55.128Z,9.90
2019-05-22T02:35:36.721Z,9.90
2019-05-22T02:38:25.924Z,9.90
2019-05-22T02:41:15.851Z,9.90
2019-05-22T02:43:57.644Z,10.00
2019-05-22T02:46:46.967Z,10.00
2019-05-22T02:49:24.003Z,10.00
2019-05-22T02:52:07.338Z,10.00
2019-05-22T02:54:49.948Z,10.00
2019-05-22T02:57:39.866Z,10.00
2019-05-22T03:00:24.298Z,9.90
2019-05-22T03:03:14.059Z,9.90
2019-05-22T03:05:56.361Z,9.90
2019-05-22T03:09:05.274Z,9.90
2019-05-22T03:11:57.450Z,9.90
2019-05-22T03:14:40.063Z,9.90
2019-05-22T03:17:42.046Z,9.90
2019-05-22T03:20:26.484Z,9.90
2019-05-22T03:23:23.342Z,9.90
2019-05-22T03:26:05.807Z,9.90
2019-05-22T03:28:54.435Z,9.90
2019-05-22T03:31:36.398Z,9.90
2019-05-22T03:34:27.717Z,9.90
2019-05-22T03:37:17.048Z,9.90
2019-05-22T03:39:58.084Z,9.90
2019-05-22T03:42:45.762Z,9.90
2019-05-22T03:45:36.098Z,9.90
2019-05-22T03:48:11.641Z,10.00
2019-05-22T03:50:53.444Z,10.00
2019-05-22T03:53:36.039Z,10.00
2019-05-22T03:56:20.294Z,10.00
2019-05-22T03:59:11.163Z,10.00
2019-05-22T04:01:52.754Z,10.00
2019-05-22T04:04:49.138Z,10.00
2019-05-22T04:07:31.759Z,10.00
2019-05-22T04:10:21.579Z,10.00
2019-05-22T04:13:10.847Z,10.00
2019-05-22T04:15:52.481Z,10.00
2019-05-22T04:18:42.796Z,10.00
2019-05-22T04:21:24.001Z,9.90
2019-05-22T04:24:13.938Z,10.00
2019-05-22T04:27:02.049Z,10.00
2019-05-22T04:29:43.879Z,10.00
2019-05-22T04:32:34.371Z,10.00
2019-05-22T04:35:18.853Z,10.00
2019-05-22T04:38:08.144Z,10.00
2019-05-22T04:40:54.422Z,10.00
2019-05-22T04:43:39.610Z,10.00
2019-05-22T04:46:15.317Z,10.10
2019-05-22T04:48:56.894Z,10.10
2019-05-22T04:51:34.613Z,10.10
2019-05-22T04:54:16.460Z,10.10
2019-05-22T04:56:58.807Z,10.20
2019-05-22T04:59:47.916Z,10.10
2019-05-22T05:02:29.659Z,10.20
2019-05-22T05:05:19.667Z,10.20
2019-05-22T05:08:03.406Z,10.20
2019-05-22T05:10:53.724Z,10.20
2019-05-22T05:13:41.387Z,10.30
2019-05-22T05:16:23.180Z,10.30
2019-05-22T05:19:11.341Z,10.30
2019-05-22T05:21:53.082Z,10.30
2019-05-22T05:24:41.974Z,10.30
2019-05-22T05:27:23.995Z,10.30
2019-05-22T05:30:11.798Z,10.30
2019-05-22T05:32:53.603Z,10.30
2019-05-22T05:35:43.559Z,10.30
2019-05-22T05:38:27.718Z,10.30
2019-05-22T05:41:16.507Z,10.30
2019-05-22T05:43:51.223Z,10.30
2019-05-22T05:46:39.795Z,10.30
2019-05-22T05:49:22.164Z,10.40
2019-05-22T05:51:58.216Z,10.30
2019-05-22T05:54:40.681Z,10.40
2019-05-22T05:57:50.831Z,10.40
2019-05-22T06:00:33.517Z,10.40
2019-05-22T06:03:47.948Z,10.40
2019-05-22T06:06:41.755Z,10.40
2019-05-22T06:09:27.190Z,10.40
2019-05-22T06:12:10.159Z,10.40
2019-05-22T06:14:53.963Z,10.50
2019-05-22T06:18:08.454Z,10.40
2019-05-22T06:21:03.214Z,10.40
2019-05-22T06:23:39.527Z,10.40
2019-05-22T06:26:36.383Z,10.50
2019-05-22T06:29:12.785Z,10.50
2019-05-22T06:32:13.269Z,10.50
2019-05-22T06:34:48.482Z,10.60
2019-05-22T06:37:55.023Z,10.60
2019-05-22T06:40:36.055Z,10.50
2019-05-22T06:43:24.687Z,10.50
2019-05-22T06:46:06.429Z,10.50
2019-05-22T06:48:35.113Z,10.60
2019-05-22T06:51:19.209Z,10.60
2019-05-22T06:53:40.173Z,10.70
2019-05-22T06:56:15.420Z,10.70
2019-05-22T06:58:44.137Z,10.70
2019-05-22T07:01:19.856Z,10.70
2019-05-22T07:03:48.417Z,10.80
2019-05-22T07:06:23.786Z,10.90
2019-05-22T07:08:52.389Z,10.90
2019-05-22T07:11:28.161Z,10.90
2019-05-22T07:13:59.334Z,11.00
2019-05-22T07:16:35.248Z,11.10
2019-05-22T07:19:04.382Z,11.20
2019-05-22T07:21:39.543Z,11.20
2019-05-22T07:24:08.651Z,11.10
2019-05-22T07:26:45.679Z,11.10
2019-05-22T07:29:15.399Z,11.10
2019-05-22T07:31:51.050Z,11.10
2019-05-22T07:34:20.046Z,11.10
2019-05-22T07:36:55.851Z,11.20
2019-05-22T07:39:24.322Z,11.30
2019-05-22T07:41:59.083Z,11.40
2019-05-22T07:44:27.885Z,11.30
2019-05-22T07:50:59.273Z,11.30
2019-05-22T07:53:40.074Z,11.10
2019-05-22T07:56:29.516Z,11.20
2019-05-22T07:59:10.842Z,11.20
2019-05-22T08:01:58.564Z,11.20
2019-05-22T08:04:39.671Z,11.40
2019-05-22T08:07:31.625Z,11.50
2019-05-22T08:10:17.621Z,11.60
2019-05-22T08:13:06.958Z,11.80
2019-05-22T08:15:49.085Z,12.20
2019-05-22T08:18:39.617Z,12.50
2019-05-22T08:21:28.050Z,12.70
2019-05-22T08:24:09.497Z,12.90
2019-05-22T08:26:59.016Z,13.10
2019-05-22T08:29:41.885Z,13.00
2019-05-22T08:32:30.735Z,12.70
2019-05-22T08:35:16.480Z,12.60
2019-05-22T08:38:05.376Z,12.60
2019-05-22T08:40:47.573Z,12.60
2019-05-22T08:43:56.041Z,12.90
2019-05-22T08:46:18.758Z,13.00
2019-05-22T08:49:01.638Z,13.10
2019-05-22T08:51:43.976Z,13.30
2019-05-22T08:54:20.122Z,13.70
2019-05-22T08:57:02.908Z,13.80
2019-05-22T08:59:38.729Z,13.80
2019-05-22T09:02:21.712Z,14.00
2019-05-22T09:04:56.372Z,14.00
2019-05-22T09:07:38.521Z,13.80
2019-05-22T09:10:15.167Z,13.70
2019-05-22T09:12:57.346Z,13.70
2019-05-22T09:15:33.388Z,13.70
2019-05-22T09:18:15.593Z,13.70
2019-05-22T09:20:50.684Z,13.80
2019-05-22T09:23:33.201Z,13.80
2019-05-22T09:26:10.488Z,14.10
2019-05-22T09:28:52.418Z,14.60
2019-05-22T09:31:28.043Z,14.50
2019-05-22T09:34:09.974Z,14.50
2019-05-22T09:36:44.834Z,14.30
2019-05-22T09:39:27.246Z,13.90
2019-05-22T09:42:01.802Z,13.70
2019-05-22T09:44:43.244Z,13.50
2019-05-22T09:47:27.993Z,13.60
2019-05-22T09:50:03.735Z,13.60
2019-05-22T09:52:57.428Z,13.60
2019-05-22T09:55:47.190Z,13.50
2019-05-22T09:58:33.040Z,13.40
2019-05-22T10:01:14.995Z,13.50
2019-05-22T10:04:04.263Z,13.70
2019-05-22T10:06:45.914Z,14.10
2019-05-22T10:09:33.907Z,14.00
2019-05-22T10:12:15.751Z,14.20
2019-05-22T10:15:05.028Z,14.50
2019-05-22T10:17:52.649Z,14.90
2019-05-22T10:20:40.569Z,15.40
2019-05-22T10:23:22.878Z,15.50
2019-05-22T10:26:12.733Z,15.30
2019-05-22T10:29:00.607Z,14.70
2019-05-22T10:31:42.976Z,13.90
2019-05-22T10:34:31.847Z,13.70
2019-05-22T10:37:15.899Z,13.60
2019-05-22T10:40:04.254Z,13.50
2019-05-22T10:42:47.036Z,13.50
2019-05-22T10:45:36.724Z,13.70
2019-05-22T10:48:12.379Z,13.80
2019-05-22T10:50:55.116Z,14.30
2019-05-22T10:53:37.507Z,14.60
2019-05-22T10:56:26.429Z,14.90
2019-05-22T10:59:15.807Z,15.60
2019-05-22T11:01:56.588Z,16.30
2019-05-22T11:04:45.100Z,16.90
2019-05-22T11:07:28.722Z,17.00
2019-05-22T11:10:20.462Z,17.30
2019-05-22T11:13:01.364Z,17.50
2019-05-22T11:15:50.480Z,17.40
2019-05-22T11:18:39.711Z,17.10
2019-05-22T11:21:22.079Z,16.50
2019-05-22T11:24:10.302Z,16.50
2019-05-22T11:26:52.413Z,16.70
2019-05-22T11:29:41.536Z,17.20
2019-05-22T11:32:23.318Z,17.20
2019-05-22T11:35:11.610Z,17.20
2019-05-22T11:37:53.996Z,17.90
2019-05-22T11:40:41.626Z,18.40
2019-05-22T11:43:23.401Z,19.00
2019-05-22T11:46:05.835Z,18.70
2019-05-22T11:48:47.995Z,18.60
2019-05-22T11:51:30.519Z,17.90
2019-05-22T11:54:12.254Z,17.50
2019-05-22T11:57:00.145Z,17.50
2019-05-22T11:59:41.469Z,17.50
2019-05-22T12:02:30.392Z,17.50
2019-05-22T12:05:20.747Z,18.00
2019-05-22T12:08:02.662Z,18.00
2019-05-22T12:10:51.334Z,17.70
2019-05-22T12:13:34.083Z,17.30
2019-05-22T12:16:21.755Z,17.20
2019-05-22T12:19:10.239Z,16.90
2019-05-22T12:21:51.982Z,16.20
2019-05-22T12:24:40.563Z,15.70
2019-05-22T12:27:22.820Z,15.20
2019-05-22T12:30:10.807Z,14.60
2019-05-22T12:32:52.906Z,14.20
2019-05-22T12:35:42.087Z,14.10
2019-05-22T12:38:26.924Z,13.90
2019-05-22T12:41:16.236Z,13.70
2019-05-22T12:43:58.331Z,13.60
2019-05-22T12:46:40.813Z,13.90
2019-05-22T12:49:24.445Z,14.20
2019-05-22T12:52:00.128Z,14.50
2019-05-22T12:54:52.440Z,14.90
2019-05-22T12:57:31.680Z,15.30
2019-05-22T13:00:23.168Z,15.40
2019-05-22T13:03:06.578Z,15.40
2019-05-22T13:05:55.287Z,15.30
2019-05-22T13:08:43.592Z,15.10
2019-05-22T13:11:24.700Z,14.80
2019-05-22T13:14:13.266Z,14.60
2019-05-22T13:17:01.687Z,14.50
2019-05-22T13:19:44.758Z,14.50
2019-05-22T13:22:36.989Z,14.60
2019-05-22T13:25:27.754Z,14.80
2019-05-22T13:28:08.865Z,15.10
2019-05-22T13:31:04.374Z,15.30
2019-05-22T13:33:47.601Z,15.30
2019-05-22T13:36:38.812Z,15.60
2019-05-22T13:39:26.650Z,15.90
2019-05-22T13:42:13.039Z,15.70
2019-05-22T13:45:00.406Z,15.50
2019-05-22T13:47:41.160Z,15.10
2019-05-22T13:50:24.007Z,14.90
2019-05-22T13:53:00.787Z,14.70
2019-05-22T13:55:49.273Z,14.60
2019-05-22T13:58:33.299Z,14.60
2019-05-22T14:01:20.969Z,14.70
2019-05-22T14:04:03.155Z,15.10
2019-05-22T14:06:52.624Z,15.50
2019-05-22T14:09:41.745Z,15.70
2019-05-22T14:12:23.387Z,15.90
2019-05-22T14:15:12.127Z,15.70
2019-05-22T14:17:53.837Z,15.60
2019-05-22T14:20:43.084Z,15.30
2019-05-22T14:23:31.789Z,15.10
2019-05-22T14:26:13.714Z,15.10
2019-05-22T14:29:09.674Z,15.20
2019-05-22T14:31:50.467Z,15.20
2019-05-22T14:34:39.078Z,15.40
2019-05-22T14:37:21.939Z,15.50
2019-05-22T14:40:11.495Z,15.90
2019-05-22T14:42:53.184Z,16.10
2019-05-22T14:45:41.707Z,16.30
2019-05-22T14:48:17.217Z,16.50
2019-05-22T14:50:59.214Z,16.70
2019-05-22T14:53:43.011Z,16.70
2019-05-22T14:56:26.262Z,16.90
2019-05-22T14:59:15.664Z,16.90
2019-05-22T15:01:58.268Z,16.80
2019-05-22T15:04:47.749Z,16.60
2019-05-22T15:07:29.508Z,16.20
2019-05-22T15:10:20.712Z,15.70
2019-05-22T15:13:02.388Z,15.50
2019-05-22T15:15:51.412Z,15.20
2019-05-22T15:18:33.345Z,14.60
2019-05-22T15:21:23.517Z,14.30
2019-05-22T15:24:05.537Z,14.10
2019-05-22T15:26:54.409Z,13.90
2019-05-22T15:29:36.092Z,13.70
2019-05-22T15:32:25.583Z,13.60
2019-05-22T15:35:13.851Z,13.40
2019-05-22T15:37:56.277Z,13.40
2019-05-22T15:40:44.478Z,13.10
2019-05-22T15:43:21.073Z,13.00
2019-05-22T15:46:05.443Z,13.00
2019-05-22T15:48:41.401Z,13.00
2019-05-22T15:51:23.509Z,12.90
2019-05-22T15:54:02.067Z,12.90
2019-05-22T15:56:51.190Z,13.00
2019-05-22T15:59:35.018Z,13.00
2019-05-22T16:02:23.828Z,13.00
2019-05-22T16:05:07.611Z,13.00
2019-05-22T16:07:58.541Z,13.10
2019-05-22T16:10:46.869Z,13.30
2019-05-22T16:13:30.137Z,13.40
2019-05-22T16:16:20.289Z,13.50
2019-05-22T16:19:05.405Z,13.80
2019-05-22T16:21:57.247Z,14.20
2019-05-22T16:24:38.025Z,14.60
2019-05-22T16:27:26.868Z,15.10
2019-05-22T16:30:09.440Z,15.60
2019-05-22T16:32:58.725Z,16.10
2019-05-22T16:35:40.696Z,16.30
2019-05-22T16:38:29.490Z,16.30
2019-05-22T16:41:18.805Z,16.20
2019-05-22T16:43:55.936Z,16.00
2019-05-22T16:46:46.763Z,15.80
2019-05-22T16:49:22.553Z,15.70
2019-05-22T16:52:04.943Z,15.50
2019-05-22T16:54:40.963Z,15.50
2019-05-22T16:57:29.412Z,15.50
2019-05-22T17:00:13.919Z,15.60
2019-05-22T17:03:02.555Z,15.60
2019-05-22T17:05:46.312Z,15.50
2019-05-22T17:08:35.040Z,15.60
2019-05-22T17:11:16.489Z,15.50
2019-05-22T17:14:08.153Z,15.40
2019-05-22T17:16:57.866Z,15.20
2019-05-22T17:19:40.306Z,15.10
2019-05-22T17:22:29.960Z,15.20
2019-05-22T17:25:13.890Z,15.20
2019-05-22T17:28:02.216Z,15.30
2019-05-22T17:30:44.189Z,15.50
2019-05-22T17:33:32.570Z,15.70
2019-05-22T17:36:14.937Z,15.90
2019-05-22T17:39:03.392Z,16.10
2019-05-22T17:41:46.906Z,16.20
2019-05-22T17:44:35.050Z,16.20
2019-05-22T17:47:24.106Z,16.10
2019-05-22T17:50:00.693Z,15.90
2019-05-22T17:52:42.463Z,15.90
2019-05-22T17:55:18.805Z,15.80
2019-05-22T17:58:07.692Z,15.60
2019-05-22T18:00:51.986Z,15.50
2019-05-22T18:03:40.257Z,15.30
2019-05-22T18:06:21.969Z,15.10
2019-05-22T18:09:10.896Z,14.90
2019-05-22T18:11:51.721Z,14.70
2019-05-22T18:14:40.027Z,14.60
2019-05-22T18:17:29.419Z,14.30
2019-05-22T18:20:12.447Z,14.30
2019-05-22T18:23:01.554Z,14.20
2019-05-22T18:25:44.323Z,14.00
2019-05-22T18:28:32.220Z,13.90
2019-05-22T18:31:13.238Z,13.70
2019-05-22T18:34:02.288Z,13.60
2019-05-22T18:36:44.770Z,13.60
2019-05-22T18:39:34.411Z,13.50
2019-05-22T18:42:16.378Z,13.50
2019-05-22T18:45:04.271Z,13.40
2019-05-22T18:47:48.372Z,13.20
2019-05-22T18:50:30.662Z,13.10
2019-05-22T18:53:12.821Z,13.00
2019-05-22T18:55:48.387Z,13.00
2019-05-22T18:58:30.533Z,12.90
2019-05-22T19:01:12.188Z,12.90
2019-05-22T19:03:59.853Z,12.80
2019-05-22T19:06:41.479Z,12.70
2019-05-22T19:09:29.581Z,12.70
2019-05-22T19:12:11.652Z,12.70
2019-05-22T19:14:59.755Z,12.60
2019-05-22T19:21:12.945Z,12.50
2019-05-22T19:23:48.613Z,12.30
2019-05-22T19:26:17.415Z,12.10
2019-05-22T19:28:59.231Z,12.10
2019-05-22T19:31:28.294Z,12.10
2019-05-22T19:34:03.771Z,12.10
2019-05-22T19:36:32.398Z,12.00
2019-05-22T19:39:08.431Z,12.10
2019-05-22T19:41:37.175Z,12.00
2019-05-22T19:44:12.604Z,12.00
2019-05-22T19:46:48.336Z,12.10
2019-05-22T19:49:36.244Z,12.10
2019-05-22T19:52:06.330Z,12.00
2019-05-22T19:54:35.721Z,12.00
2019-05-22T19:57:04.596Z,12.00
2019-05-22T19:59:33.568Z,12.00
2019-05-22T20:02:03.014Z,12.00
2019-05-22T20:04:32.543Z,12.00
2019-05-22T20:07:01.498Z,12.00
2019-05-22T20:09:30.199Z,12.00
2019-05-22T20:11:58.788Z,12.00
2019-05-22T20:14:30.482Z,12.00
2019-05-22T20:16:57.888Z,12.00
2019-05-22T20:19:26.584Z,12.10
2019-05-22T20:21:59.751Z,12.10
2019-05-22T20:24:26.246Z,12.00
2019-05-22T20:26:54.960Z,12.10
2019-05-22T20:29:24.707Z,12.00
2019-05-22T20:31:54.290Z,12.10
2019-05-22T20:34:23.431Z,12.00
2019-05-22T20:36:52.209Z,12.00
2019-05-22T20:39:22.250Z,12.00
2019-05-22T20:41:51.596Z,11.90
2019-05-22T20:44:20.550Z,11.90
2019-05-22T20:46:50.994Z,12.00
2019-05-22T20:49:20.240Z,12.00
2019-05-22T20:51:48.951Z,11.90
2019-05-22T20:54:18.635Z,11.90
2019-05-22T20:56:48.239Z,11.80
2019-05-22T20:59:17.060Z,11.80
2019-05-22T21:01:46.766Z,11.80
2019-05-22T21:04:17.151Z,11.80
2019-05-22T21:06:54.516Z,11.70
2019-05-22T21:09:23.173Z,11.70
2019-05-22T21:11:52.118Z,11.70
2019-05-22T21:14:21.336Z,11.70
2019-05-22T21:16:50.358Z,11.80
2019-05-22T21:19:23.453Z,11.70
2019-05-22T21:21:51.891Z,11.70
2019-05-22T21:24:20.517Z,11.70
2019-05-22T21:26:49.077Z,11.70
2019-05-22T21:29:17.713Z,11.60
2019-05-22T21:31:47.799Z,11.60
2019-05-22T21:34:16.783Z,11.60
2019-05-22T21:36:45.528Z,11.70
2019-05-22T21:39:15.905Z,11.70
2019-05-22T21:41:44.856Z,11.70
2019-05-22T21:44:13.652Z,11.70
2019-05-22T21:46:42.407Z,11.60
2019-05-22T21:49:11.094Z,11.60
2019-05-22T21:51:40.109Z,11.60
2019-05-22T21:54:09.505Z,11.60
2019-05-22T21:56:39.181Z,11.60
2019-05-22T21:59:08.650Z,11.60
2019-05-22T22:01:38.981Z,11.50
2019-05-22T22:04:12.080Z,11.60
2019-05-22T22:06:41.058Z,11.60
2019-05-22T22:09:10.795Z,11.50
2019-05-22T22:11:40.476Z,11.50
2019-05-22T22:14:09.815Z,11.50
2019-05-22T22:16:39.749Z,11.50
2019-05-22T22:19:10.733Z,11.50
2019-05-22T22:21:39.703Z,11.50
2019-05-22T22:24:09.586Z,11.40
2019-05-22T22:26:38.157Z,11.40
2019-05-22T22:29:07.833Z,11.40
2019-05-22T22:31:37.855Z,11.40
2019-05-22T22:34:19.134Z,11.40
2019-05-22T22:36:49.286Z,11.40
2019-05-22T22:39:20.165Z,11.30
2019-05-22T22:41:50.965Z,11.30
2019-05-22T22:44:21.158Z,11.30
2019-05-22T22:46:52.512Z,11.40
2019-05-22T22:49:23.670Z,11.40
2019-05-22T22:51:52.378Z,11.40
2019-05-22T22:54:21.615Z,11.40
2019-05-22T22:56:50.222Z,11.30
2019-05-22T22:59:19.285Z,11.30
2019-05-22T23:01:52.637Z,11.30
2019-05-22T23:04:24.576Z,11.40
2019-05-22T23:06:55.865Z,11.40
2019-05-22T23:09:25.368Z,11.30
2019-05-22T23:11:55.220Z,11.20
2019-05-22T23:14:24.155Z,11.10
2019-05-22T23:16:53.101Z,11.00
2019-05-22T23:19:34.240Z,11.00
2019-05-22T23:22:06.779Z,11.00
2019-05-22T23:24:38.723Z,11.00
2019-05-22T23:27:08.383Z,10.90
2019-05-22T23:29:38.609Z,10.80
2019-05-22T23:32:09.388Z,10.70
2019-05-22T23:34:38.990Z,10.70
2019-05-22T23:37:09.505Z,10.70
2019-05-22T23:39:40.078Z,10.60
2019-05-22T23:42:12.775Z,10.60
2019-05-22T23:44:42.712Z,10.60
2019-05-22T23:47:13.004Z,10.50
2019-05-22T23:49:42.735Z,10.40
2019-05-22T23:52:13.143Z,10.40
2019-05-22T23:54:41.658Z,10.40
2019-05-22T23:57:10.858Z,10.30
2019-05-22T23:59:41.430Z,10.10
